createdAt,value
2019-01-29T00:01:00.532Z,12.47
2019-01-29T00:03:29.983Z,11.43
2019-01-29T00:05:59.435Z,12.07
2019-01-29T00:08:28.938Z,11.03
2019-01-29T00:10:58.384Z,11.90
2019-01-29T00:13:27.843Z,11.73
2019-01-29T00:15:57.328Z,10.60
2019-01-29T00:18:26.796Z,11.73
2019-01-29T00:20:56.244Z,13.10
2019-01-29T00:23:25.720Z,12.83
2019-01-29T00:25:55.186Z,15.50
2019-01-29T00:28:24.638Z,12.33
2019-01-29T00:30:54.120Z,15.30
2019-01-29T00:33:23.587Z,12.83
2019-01-29T00:35:53.040Z,14.20
2019-01-29T00:38:22.514Z,11.17
2019-01-29T00:40:51.961Z,12.07
2019-01-29T00:43:21.458Z,12.50
2019-01-29T00:45:50.949Z,11.30
2019-01-29T00:48:20.397Z,13.03
2019-01-29T00:50:49.850Z,15.13
2019-01-29T00:53:19.328Z,17.23
2019-01-29T00:55:48.778Z,14.43
2019-01-29T00:58:18.222Z,15.63
2019-01-29T01:00:47.732Z,14.87
2019-01-29T01:03:17.346Z,16.27
2019-01-29T01:09:34.173Z,15.00
2019-01-29T01:12:03.619Z,13.10
2019-01-29T01:14:33.076Z,13.53
2019-01-29T01:17:02.560Z,11.90
2019-01-29T01:19:32.030Z,12.63
2019-01-29T01:22:01.529Z,10.63
2019-01-29T01:24:31.005Z,10.73
2019-01-29T01:27:00.444Z,9.60
2019-01-29T01:29:29.996Z,10.80
2019-01-29T01:31:59.470Z,9.67
2019-01-29T01:34:28.966Z,9.70
2019-01-29T01:36:58.443Z,9.60
2019-01-29T01:39:27.929Z,10.17
2019-01-29T01:41:57.378Z,10.00
2019-01-29T01:44:26.857Z,10.27
2019-01-29T01:46:56.307Z,12.07
2019-01-29T01:49:25.753Z,10.67
2019-01-29T01:51:55.238Z,10.43
2019-01-29T01:54:24.688Z,9.70
2019-01-29T01:56:54.171Z,10.90
2019-01-29T01:59:23.619Z,9.70
2019-01-29T02:01:53.100Z,8.53
2019-01-29T02:04:22.544Z,10.53
2019-01-29T02:06:51.990Z,9.50
2019-01-29T02:09:21.477Z,9.90
2019-01-29T02:11:50.928Z,9.93
2019-01-29T02:14:20.368Z,8.90
2019-01-29T02:16:49.854Z,9.40
2019-01-29T02:19:19.332Z,9.30
2019-01-29T02:21:48.840Z,9.70
2019-01-29T02:24:18.281Z,8.30
2019-01-29T02:26:47.720Z,7.60
2019-01-29T02:29:17.213Z,7.30
2019-01-29T02:31:46.654Z,7.57
2019-01-29T02:34:16.110Z,8.20
2019-01-29T02:36:45.610Z,10.40
2019-01-29T02:39:15.082Z,11.00
2019-01-29T02:41:44.557Z,8.50
2019-01-29T02:44:13.999Z,8.33
2019-01-29T02:46:43.476Z,9.53
2019-01-29T02:49:12.927Z,9.50
2019-01-29T02:51:42.405Z,8.13
2019-01-29T02:54:11.857Z,8.30
2019-01-29T02:56:41.352Z,7.80
2019-01-29T02:59:10.789Z,7.30
2019-01-29T03:01:40.223Z,8.93
2019-01-29T03:04:09.715Z,7.63
2019-01-29T03:06:39.228Z,7.60
2019-01-29T03:09:09.575Z,6.67
2019-01-29T03:11:39.072Z,9.00
2019-01-29T03:14:08.509Z,7.37
2019-01-29T03:16:37.952Z,8.47
2019-01-29T03:19:07.428Z,9.47
2019-01-29T03:21:36.876Z,9.70
2019-01-29T03:24:06.314Z,9.20
2019-01-29T03:26:35.790Z,9.60
2019-01-29T03:29:05.368Z,8.93
2019-01-29T03:31:34.825Z,8.80
2019-01-29T03:34:04.498Z,6.90
2019-01-29T03:36:33.942Z,9.87
2019-01-29T03:39:05.269Z,9.57
2019-01-29T03:41:34.745Z,8.87
2019-01-29T03:44:04.252Z,9.47
2019-01-29T03:46:33.698Z,9.17
2019-01-29T03:49:03.152Z,9.23
2019-01-29T03:51:33.588Z,10.00
2019-01-29T03:54:03.064Z,8.00
2019-01-29T03:56:32.528Z,7.67
2019-01-29T03:59:02.055Z,9.07
2019-01-29T04:01:31.658Z,7.80
2019-01-29T04:04:01.084Z,9.40
2019-01-29T04:06:30.566Z,9.83
2019-01-29T04:09:00.014Z,7.87
2019-01-29T04:11:29.449Z,8.80
2019-01-29T04:13:58.956Z,7.87
2019-01-29T04:16:28.427Z,9.77
2019-01-29T04:18:57.843Z,9.20
2019-01-29T04:21:27.324Z,9.17
2019-01-29T04:23:56.767Z,8.23
2019-01-29T04:26:26.226Z,6.30
2019-01-29T04:28:55.862Z,8.50
2019-01-29T04:31:25.382Z,7.33
2019-01-29T04:33:54.826Z,7.57
2019-01-29T04:36:24.306Z,8.20
2019-01-29T04:38:53.759Z,7.30
2019-01-29T04:41:23.207Z,8.23
2019-01-29T04:43:52.714Z,7.43
2019-01-29T04:46:22.154Z,7.10
2019-01-29T04:48:51.641Z,8.10
2019-01-29T04:51:21.089Z,7.63
2019-01-29T04:53:57.206Z,5.87
2019-01-29T04:56:21.737Z,7.90
2019-01-29T04:58:51.226Z,7.70
2019-01-29T05:01:20.701Z,8.33
2019-01-29T05:03:50.193Z,7.50
2019-01-29T05:06:19.630Z,5.97
2019-01-29T05:08:49.080Z,6.70
2019-01-29T05:11:18.539Z,6.70
2019-01-29T05:13:48.009Z,5.30
2019-01-29T05:16:17.481Z,7.10
2019-01-29T05:18:47.092Z,7.30
2019-01-29T05:21:16.563Z,6.07
2019-01-29T05:23:46.012Z,6.40
2019-01-29T05:26:15.486Z,5.20
2019-01-29T05:28:44.943Z,5.37
2019-01-29T05:31:14.454Z,4.97
2019-01-29T05:33:43.894Z,4.70
2019-01-29T05:36:13.337Z,4.40
2019-01-29T05:38:42.847Z,4.63
2019-01-29T05:41:12.293Z,4.77
2019-01-29T05:43:41.724Z,4.47
2019-01-29T05:46:11.177Z,4.03
2019-01-29T05:48:40.653Z,4.80
2019-01-29T05:51:10.089Z,4.00
2019-01-29T05:53:39.555Z,5.03
2019-01-29T05:56:09.077Z,4.70
2019-01-29T05:58:38.590Z,3.87
2019-01-29T06:01:08.026Z,4.63
2019-01-29T06:03:37.475Z,5.23
2019-01-29T06:06:06.941Z,5.47
2019-01-29T06:08:36.381Z,5.33
2019-01-29T06:11:05.873Z,5.23
2019-01-29T06:13:35.373Z,5.37
2019-01-29T06:16:04.892Z,5.03
2019-01-29T06:18:34.404Z,5.40
2019-01-29T06:21:03.974Z,6.43
2019-01-29T06:23:33.464Z,5.53
2019-01-29T06:26:02.909Z,6.20
2019-01-29T06:28:32.360Z,5.50
2019-01-29T06:31:01.802Z,6.57
2019-01-29T06:33:31.277Z,5.47
2019-01-29T06:36:00.751Z,6.83
2019-01-29T06:38:30.236Z,6.60
2019-01-29T06:40:59.677Z,7.90
2019-01-29T06:43:29.162Z,6.93
2019-01-29T06:45:58.636Z,5.10
2019-01-29T06:48:28.094Z,6.57
2019-01-29T06:50:57.568Z,6.90
2019-01-29T06:53:27.023Z,6.93
2019-01-29T06:55:56.501Z,7.30
2019-01-29T06:58:25.963Z,6.47
2019-01-29T07:00:55.440Z,5.60
2019-01-29T07:03:24.889Z,7.17
2019-01-29T07:05:54.357Z,4.20
2019-01-29T07:08:23.797Z,6.13
2019-01-29T07:10:53.629Z,5.27
2019-01-29T07:13:23.097Z,5.80
2019-01-29T07:16:09.273Z,5.80
2019-01-29T07:18:48.994Z,5.73
2019-01-29T07:21:18.473Z,5.57
2019-01-29T07:23:47.921Z,5.73
2019-01-29T07:26:17.395Z,7.50
2019-01-29T07:28:46.885Z,5.43
2019-01-29T07:31:17.097Z,8.20
2019-01-29T07:33:46.578Z,7.60
2019-01-29T07:36:16.018Z,6.67
2019-01-29T07:38:45.568Z,6.17
2019-01-29T07:41:15.139Z,6.67
2019-01-29T07:43:44.658Z,6.73
2019-01-29T07:46:14.169Z,7.10
2019-01-29T07:48:43.621Z,6.20
2019-01-29T07:51:13.095Z,6.67
2019-01-29T07:53:42.544Z,6.43
2019-01-29T07:56:12.021Z,6.73
2019-01-29T07:58:41.490Z,6.43
2019-01-29T08:01:10.961Z,5.20
2019-01-29T08:03:40.411Z,5.73
2019-01-29T08:06:09.866Z,5.83
2019-01-29T08:08:39.386Z,8.13
2019-01-29T08:11:08.851Z,7.53
2019-01-29T08:13:38.326Z,7.53
2019-01-29T08:16:07.766Z,9.60
2019-01-29T08:18:37.206Z,10.10
2019-01-29T08:21:06.985Z,12.40
2019-01-29T08:23:36.518Z,11.33
2019-01-29T08:26:06.303Z,12.10
2019-01-29T08:28:35.759Z,8.20
2019-01-29T08:31:05.235Z,9.20
2019-01-29T08:33:34.680Z,10.03
2019-01-29T08:36:04.580Z,11.67
2019-01-29T08:38:34.050Z,9.13
2019-01-29T08:41:04.538Z,10.10
2019-01-29T08:43:34.088Z,9.80
2019-01-29T08:46:03.598Z,9.50
2019-01-29T08:48:33.044Z,7.90
2019-01-29T08:51:03.760Z,8.77
2019-01-29T08:53:33.478Z,7.87
2019-01-29T08:56:02.921Z,9.37
2019-01-29T08:58:32.396Z,9.10
2019-01-29T09:01:01.843Z,8.33
2019-01-29T09:03:31.316Z,8.57
2019-01-29T09:06:00.761Z,9.37
2019-01-29T09:08:33.250Z,9.60
2019-01-29T09:11:02.761Z,9.27
2019-01-29T09:13:32.233Z,6.23
2019-01-29T09:16:01.670Z,9.97
2019-01-29T09:18:31.155Z,9.90
2019-01-29T09:21:00.619Z,10.87
2019-01-29T09:23:30.063Z,10.17
2019-01-29T09:25:59.539Z,8.47
2019-01-29T09:28:28.983Z,7.67
2019-01-29T09:30:58.485Z,7.60
2019-01-29T09:33:27.933Z,6.77
2019-01-29T09:36:00.862Z,8.43
2019-01-29T09:38:30.520Z,7.37
2019-01-29T09:40:59.956Z,7.97
2019-01-29T09:43:29.397Z,6.80
2019-01-29T09:45:59.036Z,6.80
2019-01-29T09:48:28.479Z,8.23
2019-01-29T09:50:57.955Z,7.93
2019-01-29T09:53:27.393Z,7.17
2019-01-29T09:55:56.856Z,7.87
2019-01-29T09:58:26.294Z,7.73
2019-01-29T10:00:55.765Z,7.60
2019-01-29T10:03:25.206Z,9.00
2019-01-29T10:05:54.724Z,8.80
2019-01-29T10:08:24.161Z,7.97
2019-01-29T10:10:53.640Z,9.10
2019-01-29T10:13:23.114Z,7.70
2019-01-29T10:15:52.586Z,8.60
2019-01-29T10:18:22.070Z,7.30
2019-01-29T10:20:51.578Z,9.13
2019-01-29T10:23:21.029Z,7.30
2019-01-29T10:25:50.509Z,7.03
2019-01-29T10:28:19.953Z,6.20
2019-01-29T10:30:49.403Z,6.13
2019-01-29T10:33:18.865Z,6.80
2019-01-29T10:35:48.404Z,8.27
2019-01-29T10:38:17.961Z,6.63
2019-01-29T10:40:47.427Z,5.90
2019-01-29T10:43:16.943Z,6.33
2019-01-29T10:45:46.518Z,5.30
2019-01-29T10:48:15.968Z,5.77
2019-01-29T10:50:45.479Z,6.57
2019-01-29T10:53:15.033Z,5.63
2019-01-29T10:55:47.272Z,7.20
2019-01-29T10:58:15.643Z,5.73
2019-01-29T11:00:45.112Z,6.40
2019-01-29T11:03:14.573Z,5.93
2019-01-29T11:05:44.017Z,6.80
2019-01-29T11:08:13.570Z,7.20
2019-01-29T11:10:43.040Z,7.30
2019-01-29T11:13:12.511Z,6.07
2019-01-29T11:15:42.781Z,7.87
2019-01-29T11:18:14.190Z,6.80
2019-01-29T11:20:43.938Z,6.50
2019-01-29T11:23:13.378Z,7.33
2019-01-29T11:25:43.101Z,5.40
2019-01-29T11:28:12.678Z,6.60
2019-01-29T11:30:43.161Z,6.77
2019-01-29T11:33:12.833Z,5.63
2019-01-29T11:35:42.272Z,5.00
2019-01-29T11:38:11.892Z,4.57
2019-01-29T11:40:41.535Z,5.20
2019-01-29T11:43:11.147Z,5.93
2019-01-29T11:45:45.306Z,5.63
2019-01-29T11:48:14.757Z,5.73
2019-01-29T11:50:44.227Z,5.17
2019-01-29T11:53:13.781Z,6.10
2019-01-29T11:55:43.218Z,5.50
2019-01-29T11:58:12.763Z,4.70
2019-01-29T12:00:44.005Z,2.83
2019-01-29T12:03:13.439Z,3.10
2019-01-29T12:05:42.915Z,4.00
2019-01-29T12:08:12.430Z,3.40
2019-01-29T12:10:42.052Z,3.10
2019-01-29T12:13:11.493Z,3.50
2019-01-29T12:15:40.929Z,4.03
2019-01-29T12:18:10.552Z,4.37
2019-01-29T12:20:40.056Z,3.73
2019-01-29T12:23:09.563Z,4.30
2019-01-29T12:25:39.180Z,5.23
2019-01-29T12:28:08.714Z,4.70
2019-01-29T12:30:38.227Z,4.30
2019-01-29T12:33:08.621Z,4.30
2019-01-29T12:35:38.068Z,4.50
2019-01-29T12:38:07.536Z,4.60
2019-01-29T12:40:37.256Z,4.10
2019-01-29T12:43:07.180Z,4.70
2019-01-29T12:45:36.734Z,4.60
2019-01-29T12:48:06.821Z,4.13
2019-01-29T12:50:37.136Z,4.03
2019-01-29T12:53:08.627Z,3.73
2019-01-29T12:55:38.248Z,4.07
2019-01-29T12:58:08.022Z,3.10
2019-01-29T13:00:39.547Z,3.57
2019-01-29T13:03:09.237Z,3.53
2019-01-29T13:05:38.717Z,3.20
2019-01-29T13:08:09.293Z,3.87
2019-01-29T13:10:38.902Z,3.43
2019-01-29T13:13:08.610Z,3.07
2019-01-29T13:15:38.759Z,4.40
2019-01-29T13:18:08.312Z,4.13
2019-01-29T13:20:37.752Z,4.10
2019-01-29T13:23:07.326Z,3.13
2019-01-29T13:25:36.819Z,3.80
2019-01-29T13:28:06.443Z,2.80
2019-01-29T13:30:37.793Z,3.50
2019-01-29T13:33:11.185Z,4.43
2019-01-29T13:35:40.934Z,4.27
2019-01-29T13:38:11.346Z,3.10
2019-01-29T13:40:41.189Z,2.90
2019-01-29T13:43:11.009Z,2.97
2019-01-29T13:45:41.064Z,3.03
2019-01-29T13:48:10.772Z,3.33
2019-01-29T13:50:47.667Z,2.57
2019-01-29T13:53:17.162Z,2.63
2019-01-29T13:55:46.845Z,3.27
2019-01-29T13:58:16.293Z,2.83
2019-01-29T14:00:45.891Z,4.27
2019-01-29T14:03:15.538Z,5.57
2019-01-29T14:05:45.013Z,4.03
2019-01-29T14:08:14.448Z,3.40
2019-01-29T14:10:43.927Z,3.50
2019-01-29T14:13:13.365Z,3.70
2019-01-29T14:15:47.389Z,4.23
2019-01-29T14:18:17.541Z,3.17
2019-01-29T14:20:47.035Z,3.60
2019-01-29T14:23:16.561Z,4.00
2019-01-29T14:25:46.075Z,3.57
2019-01-29T14:28:15.534Z,4.37
2019-01-29T14:30:45.166Z,4.20
2019-01-29T14:33:14.964Z,4.80
2019-01-29T14:35:44.409Z,4.47
2019-01-29T14:38:29.920Z,3.83
2019-01-29T14:41:00.733Z,5.10
2019-01-29T14:43:40.596Z,4.50
2019-01-29T14:46:10.252Z,5.90
2019-01-29T14:48:39.693Z,6.40
2019-01-29T14:51:09.257Z,7.70
2019-01-29T14:53:38.703Z,7.90
2019-01-29T14:56:08.288Z,7.80
2019-01-29T14:58:37.770Z,6.20
2019-01-29T15:01:07.515Z,4.23
2019-01-29T15:03:36.953Z,3.47
2019-01-29T15:06:06.936Z,3.13
2019-01-29T15:08:36.368Z,3.50
2019-01-29T15:11:06.249Z,2.90
2019-01-29T15:13:35.733Z,3.63
2019-01-29T15:16:07.920Z,3.57
2019-01-29T15:18:39.009Z,3.97
2019-01-29T15:21:08.481Z,3.63
2019-01-29T15:23:37.924Z,3.80
2019-01-29T15:26:07.383Z,4.20
2019-01-29T15:28:36.910Z,4.20
2019-01-29T15:31:06.444Z,4.20
2019-01-29T15:33:35.874Z,3.67
2019-01-29T15:36:06.760Z,4.23
2019-01-29T15:38:36.368Z,3.80
2019-01-29T15:41:06.508Z,3.93
2019-01-29T15:43:37.515Z,4.50
2019-01-29T15:46:06.994Z,6.40
2019-01-29T15:48:36.439Z,5.10
2019-01-29T15:51:06.550Z,8.37
2019-01-29T15:53:35.992Z,6.40
2019-01-29T15:56:06.043Z,8.43
2019-01-29T15:58:35.529Z,5.90
2019-01-29T16:01:05.345Z,8.10
2019-01-29T16:03:34.867Z,14.77
2019-01-29T16:06:04.678Z,5.13
2019-01-29T16:08:34.129Z,9.83
2019-01-29T16:11:03.650Z,9.10
2019-01-29T16:13:33.149Z,11.27
2019-01-29T16:16:02.662Z,12.80
2019-01-29T16:18:32.138Z,13.67
2019-01-29T16:21:01.605Z,8.53
2019-01-29T16:23:31.057Z,9.97
2019-01-29T16:26:00.532Z,7.63
2019-01-29T16:28:30.142Z,10.73
2019-01-29T16:30:59.665Z,10.30
2019-01-29T16:33:29.110Z,11.60
2019-01-29T16:35:58.584Z,10.43
2019-01-29T16:38:28.029Z,10.50
2019-01-29T16:41:00.592Z,7.77
2019-01-29T16:43:28.745Z,10.70
2019-01-29T16:45:58.185Z,9.97
2019-01-29T16:48:27.648Z,11.57
2019-01-29T16:50:57.132Z,11.90
2019-01-29T16:53:26.606Z,22.50
2019-01-29T16:55:56.053Z,15.00
2019-01-29T16:58:25.554Z,17.60
2019-01-29T17:00:55.070Z,43.60
2019-01-29T17:03:24.518Z,40.07
2019-01-29T17:05:53.996Z,22.43
2019-01-29T17:08:23.607Z,14.00
2019-01-29T17:10:53.056Z,14.23
2019-01-29T17:13:22.711Z,24.30
2019-01-29T17:15:52.235Z,34.47
2019-01-29T17:18:21.684Z,33.73
2019-01-29T17:20:51.342Z,32.93
2019-01-29T17:23:20.791Z,29.07
2019-01-29T17:25:50.272Z,26.33
2019-01-29T17:28:19.730Z,35.00
2019-01-29T17:30:49.180Z,35.40
2019-01-29T17:33:19.052Z,32.80
2019-01-29T17:35:48.565Z,34.10
2019-01-29T17:38:18.041Z,45.60
2019-01-29T17:40:47.933Z,48.27
2019-01-29T17:43:17.407Z,28.53
2019-01-29T17:45:50.667Z,21.00
2019-01-29T17:48:20.208Z,28.33
2019-01-29T17:50:50.994Z,26.50
2019-01-29T17:53:20.447Z,25.10
2019-01-29T17:55:50.163Z,19.00
2019-01-29T17:58:19.624Z,22.43
2019-01-29T18:00:50.769Z,16.27
2019-01-29T18:03:20.620Z,15.27
2019-01-29T18:05:50.121Z,26.20
2019-01-29T18:08:19.562Z,24.07
2019-01-29T18:10:49.057Z,27.73
2019-01-29T18:13:18.498Z,27.30
2019-01-29T18:15:48.017Z,29.00
2019-01-29T18:18:17.493Z,30.73
2019-01-29T18:20:47.005Z,32.10
2019-01-29T18:23:18.456Z,33.27
2019-01-29T18:25:47.949Z,31.87
2019-01-29T18:28:17.403Z,30.37
2019-01-29T18:30:47.014Z,27.37
2019-01-29T18:33:16.493Z,26.43
2019-01-29T18:35:45.967Z,25.80
2019-01-29T18:38:15.539Z,26.87
2019-01-29T18:40:51.673Z,26.33
2019-01-29T18:43:21.153Z,21.40
2019-01-29T18:45:50.601Z,16.43
2019-01-29T18:48:20.166Z,26.90
2019-01-29T18:50:49.743Z,17.70
2019-01-29T18:53:19.152Z,31.63
2019-01-29T18:55:48.629Z,24.57
2019-01-29T18:58:18.086Z,20.67
2019-01-29T19:00:54.340Z,25.10
2019-01-29T19:03:18.802Z,18.33
2019-01-29T19:05:48.492Z,34.87
2019-01-29T19:08:18.956Z,35.57
2019-01-29T19:10:48.441Z,37.07
2019-01-29T19:13:17.888Z,42.30
2019-01-29T19:15:47.336Z,35.50
2019-01-29T19:18:16.817Z,35.73
2019-01-29T19:20:46.265Z,25.73
2019-01-29T19:23:15.708Z,41.00
2019-01-29T19:25:45.224Z,21.77
2019-01-29T19:28:21.766Z,29.60
2019-01-29T19:30:45.848Z,36.40
2019-01-29T19:33:15.324Z,23.50
2019-01-29T19:35:44.836Z,27.33
2019-01-29T19:38:16.537Z,32.37
2019-01-29T19:40:45.494Z,41.17
2019-01-29T19:43:14.933Z,42.43
2019-01-29T19:45:46.015Z,43.50
2019-01-29T19:48:15.840Z,28.57
2019-01-29T19:50:45.325Z,43.67
2019-01-29T19:53:15.933Z,58.53
2019-01-29T19:55:47.023Z,54.37
2019-01-29T19:58:17.458Z,43.57
2019-01-29T20:00:46.984Z,40.33
2019-01-29T20:03:16.601Z,47.60
2019-01-29T20:05:46.191Z,39.53
2019-01-29T20:08:15.707Z,43.23
2019-01-29T20:10:53.320Z,34.70
2019-01-29T20:13:26.188Z,25.63
2019-01-29T20:15:55.640Z,30.10
2019-01-29T20:18:25.090Z,34.63
2019-01-29T20:20:54.563Z,27.67
2019-01-29T20:23:24.014Z,35.03
2019-01-29T20:25:53.461Z,63.80
2019-01-29T20:28:23.077Z,65.40
2019-01-29T20:30:52.575Z,43.43
2019-01-29T20:33:21.967Z,35.33
2019-01-29T20:35:51.524Z,32.80
2019-01-29T20:38:21.766Z,34.57
2019-01-29T20:40:51.346Z,31.17
2019-01-29T20:43:20.833Z,33.70
2019-01-29T20:45:50.278Z,31.10
2019-01-29T20:48:19.723Z,31.10
2019-01-29T20:50:49.210Z,31.23
2019-01-29T20:53:18.679Z,30.47
2019-01-29T20:55:48.137Z,28.90
2019-01-29T20:58:17.619Z,33.50
2019-01-29T21:00:47.068Z,30.40
2019-01-29T21:03:16.532Z,30.37
2019-01-29T21:05:46.005Z,38.77
2019-01-29T21:08:15.459Z,37.70
2019-01-29T21:10:44.901Z,41.80
2019-01-29T21:13:14.388Z,37.83
2019-01-29T21:15:43.836Z,32.63
2019-01-29T21:18:13.302Z,34.30
2019-01-29T21:20:42.881Z,36.50
2019-01-29T21:23:12.408Z,28.67
2019-01-29T21:25:41.895Z,25.50
2019-01-29T21:28:11.380Z,29.37
2019-01-29T21:30:43.976Z,36.07
2019-01-29T21:33:13.629Z,38.20
2019-01-29T21:35:43.249Z,31.07
2019-01-29T21:38:12.909Z,30.37
2019-01-29T21:40:42.355Z,28.90
2019-01-29T21:43:11.796Z,24.03
2019-01-29T21:45:41.386Z,24.50
2019-01-29T21:48:10.830Z,25.80
2019-01-29T21:50:40.356Z,29.17
2019-01-29T21:53:09.942Z,28.43
2019-01-29T21:55:39.397Z,24.33
2019-01-29T21:58:09.015Z,24.80
2019-01-29T22:00:43.482Z,23.67
2019-01-29T22:03:12.926Z,22.50
2019-01-29T22:05:42.386Z,24.30
2019-01-29T22:08:12.067Z,25.57
2019-01-29T22:10:41.952Z,33.53
2019-01-29T22:13:11.978Z,24.90
2019-01-29T22:15:41.597Z,44.60
2019-01-29T22:18:11.360Z,41.93
2019-01-29T22:20:40.807Z,39.37
2019-01-29T22:23:10.294Z,41.40
2019-01-29T22:25:39.810Z,41.17
2019-01-29T22:28:09.329Z,38.47
2019-01-29T22:30:41.523Z,36.53
2019-01-29T22:33:10.971Z,32.70
2019-01-29T22:35:40.528Z,49.50
2019-01-29T22:38:10.202Z,48.87
2019-01-29T22:40:40.518Z,48.17
2019-01-29T22:43:09.963Z,30.70
2019-01-29T22:45:39.460Z,32.27
2019-01-29T22:48:08.927Z,24.60
2019-01-29T22:50:41.355Z,24.67
2019-01-29T22:53:11.115Z,36.53
2019-01-29T22:55:40.566Z,30.93
2019-01-29T22:58:10.532Z,35.90
2019-01-29T23:00:52.410Z,42.17
2019-01-29T23:03:28.795Z,37.43
2019-01-29T23:06:31.614Z,26.47
2019-01-29T23:09:01.059Z,28.70
2019-01-29T23:11:30.509Z,50.70
2019-01-29T23:13:59.998Z,31.10
2019-01-29T23:16:29.442Z,28.43
2019-01-29T23:18:58.892Z,46.40
2019-01-29T23:21:28.367Z,43.33
2019-01-29T23:23:57.812Z,45.93
2019-01-29T23:26:27.283Z,39.50
2019-01-29T23:28:56.747Z,48.60
2019-01-29T23:31:26.188Z,33.57
2019-01-29T23:33:55.640Z,33.73
2019-01-29T23:36:25.385Z,36.43
2019-01-29T23:38:54.822Z,45.10
2019-01-29T23:41:24.289Z,32.60
2019-01-29T23:43:53.814Z,51.73
2019-01-29T23:46:23.259Z,35.73
2019-01-29T23:48:52.707Z,39.90
2019-01-29T23:51:22.185Z,45.03
2019-01-29T23:53:51.631Z,46.17
2019-01-29T23:56:21.099Z,57.33
2019-01-29T23:58:50.581Z,58.10
